Pagrindinis puslapis
METAR-TAF:

METAR-TAF

Oro uostai :

Tefė, Amazonė, Brazilija

platuma: 03-22S, ilguma: 064-41W, Aukštis: 47 m

Dabartinis oras

Ataskaita buvo paskelbta 7 minutes, ne 22:45 UTC
Vėjas 8 kt iš Pietų
Temperatūra 28°C
Drėgmė 79%
Slėgis 1009 hPa
Matomumas 10 km arba daugiau
Mažai debesys ne aukštis 1500 ft
Mažai debesys ne aukštis 3000 ft, Liūtiniai kamuoliniai debesys.
Išsisklaidę debesys ne aukštis 7000 ft
Perkūnija kaimynystėje

METAR: SBTF 162245Z 18008KT 9999 VCTS FEW015 FEW030CB SCT070 28/24 Q1009

Laikas: 18:52 (22:52 UTC)

Prognozė

Ataskaita buvo paskelbta 7 valandos ir 29 minutes, ne 15:23 UTC
Prognozė galioja nuo 16 metu 18 UTC su 17 metu 06 UTC
Vėjas 5 kt iš Vakarų/Šiaurės Vakarų
Matomumas 10 km arba daugiau
Išsisklaidę debesys ne aukštis 2000 ft
Tapsmas
nuo 16 metu 18 UTC su 16 metu 20 UTC
Išsisklaidę debesys ne aukštis 2000 ft
Mažai debesys ne aukštis 2500 ft, aukštai iškilę kamuoliniai debesys.

TAF: SBTF 161523Z 1618/1706 30005KT 9999 SCT020 TX34/1619Z TN32/1622Z BECMG 1618/1620 SCT020 FEW025TCU RMK PHI

Orai ataskaitas ir orų prognozės (METAR, TAF).

turimą stotys yra geltonos ir raudonos taškus žemėlapyje.

Perkelti pele per norėdami pamatyti stoties vardą.

Tada spustelėkite, norėdami matyti oro stebėjimo ir prognozės.

Norėdami pakeisti žemėlapį: spustelėkite ant žalios mygtukų su juodo kryžiaus žemyn,; žalią mygtuką su brūkšneliu, jei norite nutolinti; arba žalių rodyklių gretimoms žemėlapius.


METAR-TAF: